createdAt,value
2018-08-09T00:04:52.077Z,47.61
2018-08-09T00:09:56.479Z,47.93
2018-08-09T00:15:06.443Z,47.36
2018-08-09T00:20:12.467Z,47.48
2018-08-09T00:26:21.625Z,47.53
2018-08-09T00:31:28.704Z,47.71
2018-08-09T00:36:34.305Z,47.90
2018-08-09T00:41:43.805Z,48.00
2018-08-09T00:46:48.849Z,48.08
2018-08-09T00:51:59.589Z,47.93
2018-08-09T00:57:04.025Z,48.15
2018-08-09T01:02:10.120Z,48.14
2018-08-09T01:07:15.629Z,48.15
2018-08-09T01:12:20.182Z,48.40
2018-08-09T01:17:26.994Z,48.47
2018-08-09T01:22:31.674Z,48.38
2018-08-09T01:27:37.456Z,48.17
2018-08-09T01:32:42.933Z,47.93
2018-08-09T01:37:47.212Z,47.97
2018-08-09T01:43:04.378Z,48.44
2018-08-09T01:48:08.749Z,48.31
2018-08-09T01:53:13.681Z,48.33
2018-08-09T01:58:18.509Z,48.45
2018-08-09T02:03:22.744Z,48.54
2018-08-09T02:08:29.076Z,48.26
2018-08-09T02:13:33.563Z,47.95
2018-08-09T02:18:40.960Z,48.24
2018-08-09T02:23:46.815Z,48.00
2018-08-09T02:28:52.382Z,48.34
2018-08-09T02:33:57.777Z,48.16
2018-08-09T02:39:02.717Z,47.68
2018-08-09T02:44:08.536Z,48.32
2018-08-09T02:49:15.012Z,48.29
2018-08-09T02:54:24.572Z,48.13
2018-08-09T02:59:34.195Z,48.02
2018-08-09T03:04:43.715Z,48.14
2018-08-09T03:15:15.108Z,48.13
2018-08-09T03:20:19.552Z,48.13
2018-08-09T03:25:28.729Z,47.87
2018-08-09T03:30:34.815Z,47.92
2018-08-09T03:35:39.897Z,48.01
2018-08-09T03:40:50.759Z,48.09
2018-08-09T03:45:57.006Z,46.27
2018-08-09T03:51:04.869Z,46.53
2018-08-09T03:56:10.746Z,47.80
2018-08-09T04:01:17.014Z,47.61
2018-08-09T04:06:20.706Z,48.25
2018-08-09T04:11:27.322Z,50.89
2018-08-09T04:16:39.433Z,51.68
2018-08-09T04:21:48.610Z,52.06
2018-08-09T04:26:57.351Z,52.72
2018-08-09T04:32:09.417Z,52.69
2018-08-09T04:37:15.419Z,52.72
2018-08-09T04:42:23.929Z,52.89
2018-08-09T04:47:28.781Z,53.33
2018-08-09T04:52:37.448Z,53.30
2018-08-09T04:57:41.796Z,53.55
2018-08-09T05:02:48.814Z,53.36
2018-08-09T05:07:54.733Z,53.24
2018-08-09T05:12:59.975Z,53.84
2018-08-09T05:18:05.600Z,53.96
2018-08-09T05:23:09.895Z,53.40
2018-08-09T05:28:14.148Z,53.37
2018-08-09T05:33:18.783Z,54.08
2018-08-09T05:38:24.828Z,54.37
2018-08-09T05:43:30.808Z,53.31
2018-08-09T05:48:35.697Z,53.34
2018-08-09T05:53:45.454Z,53.58
2018-08-09T05:58:49.724Z,53.28
2018-08-09T06:04:00.389Z,53.23
2018-08-09T06:09:07.700Z,53.45
2018-08-09T06:14:14.592Z,52.64
2018-08-09T06:19:18.660Z,52.60
2018-08-09T06:24:23.500Z,51.85
2018-08-09T06:29:28.130Z,51.30
2018-08-09T06:34:32.253Z,51.65
2018-08-09T06:39:40.329Z,51.66
2018-08-09T06:44:44.651Z,51.61
2018-08-09T06:49:50.134Z,49.21
2018-08-09T06:54:54.743Z,49.64
2018-08-09T06:59:59.071Z,48.94
2018-08-09T07:05:03.327Z,48.50
2018-08-09T07:10:08.329Z,48.49
2018-08-09T07:15:13.352Z,48.47
2018-08-09T07:20:17.069Z,48.52
2018-08-09T07:25:20.860Z,48.63
2018-08-09T07:30:25.121Z,48.08
2018-08-09T07:35:28.864Z,48.11
2018-08-09T07:40:40.826Z,48.67
2018-08-09T07:56:50.532Z,48.37
2018-08-09T08:01:54.256Z,48.29
2018-08-09T08:06:58.145Z,48.17
2018-08-09T08:12:01.974Z,48.55
2018-08-09T08:17:05.721Z,48.75
2018-08-09T08:22:09.550Z,48.64
2018-08-09T08:27:13.444Z,47.78
2018-08-09T08:32:18.366Z,49.10
2018-08-09T08:37:22.174Z,48.96
2018-08-09T08:42:25.863Z,48.98
2018-08-09T08:47:29.808Z,48.72
2018-08-09T08:52:33.558Z,48.64
2018-08-09T08:57:37.369Z,48.57
2018-08-09T09:02:41.433Z,48.14
2018-08-09T09:07:45.278Z,48.15
2018-08-09T09:12:49.021Z,49.20
2018-08-09T09:17:58.356Z,49.80
2018-08-09T09:23:02.113Z,50.13
2018-08-09T09:28:06.069Z,49.19
2018-08-09T09:33:09.894Z,49.35
2018-08-09T09:38:14.202Z,49.68
2018-08-09T09:43:18.040Z,50.21
2018-08-09T09:48:21.789Z,50.61
2018-08-09T09:53:25.566Z,51.89
2018-08-09T09:58:29.289Z,50.91
2018-08-09T10:03:33.119Z,51.20
2018-08-09T10:08:36.826Z,50.81
2018-08-09T10:13:40.649Z,50.59
2018-08-09T10:18:44.694Z,50.34
2018-08-09T10:23:48.616Z,50.61
2018-08-09T10:28:52.482Z,50.58
2018-08-09T10:33:58.589Z,50.62
2018-08-09T10:39:04.901Z,49.97
2018-08-09T10:44:08.714Z,50.42
2018-08-09T10:49:12.523Z,50.54
2018-08-09T10:54:16.325Z,49.94
2018-08-09T10:59:20.545Z,49.59
2018-08-09T11:04:24.372Z,50.34
2018-08-09T11:09:28.118Z,50.05
2018-08-09T11:14:31.969Z,50.50
2018-08-09T11:19:35.990Z,49.42
2018-08-09T11:24:39.796Z,49.15
2018-08-09T11:29:43.584Z,50.37
2018-08-09T11:34:47.512Z,50.07
2018-08-09T11:39:51.319Z,50.27
2018-08-09T11:44:55.083Z,50.86
2018-08-09T11:49:59.018Z,51.09
2018-08-09T11:55:04.146Z,50.77
2018-08-09T12:00:09.108Z,50.81
2018-08-09T12:05:12.993Z,51.09
2018-08-09T12:10:17.000Z,50.79
2018-08-09T12:15:21.045Z,50.74
2018-08-09T12:20:24.943Z,50.69
2018-08-09T12:25:29.347Z,51.08
2018-08-09T12:30:33.201Z,50.63
2018-08-09T12:35:37.175Z,50.74
2018-08-09T12:40:41.058Z,50.75
2018-08-09T12:45:45.001Z,50.66
2018-08-09T12:50:48.928Z,50.42
2018-08-09T12:55:52.870Z,50.69
2018-08-09T13:00:57.727Z,50.68
2018-08-09T13:06:01.524Z,50.37
2018-08-09T13:11:05.610Z,50.30
2018-08-09T13:16:09.998Z,50.75
2018-08-09T13:21:13.891Z,51.53
2018-08-09T13:26:17.885Z,50.89
2018-08-09T13:31:21.846Z,50.82
2018-08-09T13:36:25.876Z,51.94
2018-08-09T13:41:29.710Z,51.68
2018-08-09T13:46:33.700Z,51.58
2018-08-09T13:51:37.794Z,51.65
2018-08-09T13:56:41.633Z,51.83
2018-08-09T14:01:45.572Z,51.89
2018-08-09T14:06:49.523Z,51.71
2018-08-09T14:11:53.498Z,51.66
2018-08-09T14:16:57.466Z,52.20
2018-08-09T14:22:01.561Z,52.08
2018-08-09T14:27:05.573Z,52.43
2018-08-09T14:32:09.377Z,51.91
2018-08-09T14:37:13.161Z,52.62
2018-08-09T14:42:17.339Z,52.60
2018-08-09T14:47:21.096Z,52.72
2018-08-09T14:52:25.239Z,52.51
2018-08-09T14:57:29.104Z,52.56
2018-08-09T15:02:32.901Z,52.18
2018-08-09T15:07:36.709Z,52.61
2018-08-09T15:12:40.516Z,52.29
2018-08-09T15:17:44.436Z,52.25
2018-08-09T15:22:48.321Z,52.29
2018-08-09T15:27:52.168Z,52.49
2018-08-09T15:32:55.952Z,52.58
2018-08-09T15:38:00.153Z,52.22
2018-08-09T15:43:03.963Z,52.31
2018-08-09T15:48:08.834Z,52.12
2018-08-09T15:53:12.930Z,52.11
2018-08-09T15:58:16.710Z,52.09
2018-08-09T16:03:20.538Z,52.33
2018-08-09T16:08:24.372Z,53.97
2018-08-09T16:13:28.189Z,53.73
2018-08-09T16:18:32.081Z,54.68
2018-08-09T16:23:35.898Z,55.16
2018-08-09T16:28:39.754Z,56.31
2018-08-09T16:33:44.002Z,56.51
2018-08-09T16:38:47.805Z,55.90
2018-08-09T16:43:51.905Z,56.08
2018-08-09T16:48:55.860Z,55.53
2018-08-09T16:54:00.128Z,55.32
2018-08-09T16:59:04.021Z,55.62
2018-08-09T17:04:08.342Z,54.78
2018-08-09T17:09:14.083Z,55.36
2018-08-09T17:14:18.015Z,55.25
2018-08-09T17:19:22.207Z,54.55
2018-08-09T17:24:26.237Z,54.60
2018-08-09T17:29:30.225Z,54.32
2018-08-09T17:34:34.189Z,54.42
2018-08-09T17:39:38.009Z,54.23
2018-08-09T17:44:41.750Z,54.50
2018-08-09T17:49:45.533Z,53.61
2018-08-09T17:54:49.435Z,53.69
2018-08-09T17:59:53.462Z,53.92
2018-08-09T18:04:58.265Z,53.63
2018-08-09T18:10:05.809Z,53.52
2018-08-09T18:15:09.733Z,52.01
2018-08-09T18:20:17.574Z,52.38
2018-08-09T18:25:21.266Z,51.63
2018-08-09T18:30:25.549Z,51.66
2018-08-09T18:35:29.433Z,49.89
2018-08-09T18:51:25.264Z,50.62
2018-08-09T18:56:30.070Z,48.12
2018-08-09T19:01:35.850Z,47.94
2018-08-09T19:06:40.592Z,47.93
2018-08-09T19:11:44.478Z,48.31
2018-08-09T19:16:48.660Z,48.11
2018-08-09T19:21:54.435Z,48.98
2018-08-09T19:26:58.437Z,49.12
2018-08-09T19:32:02.860Z,49.76
2018-08-09T19:37:06.833Z,50.31
2018-08-09T19:42:10.907Z,50.57
2018-08-09T19:47:14.974Z,51.61
2018-08-09T19:52:19.089Z,51.36
2018-08-09T19:57:22.901Z,51.54
2018-08-09T20:02:26.997Z,51.89
2018-08-09T20:07:30.803Z,52.13
2018-08-09T20:12:34.755Z,51.94
2018-08-09T20:17:39.589Z,52.00
2018-08-09T20:22:44.906Z,52.25
2018-08-09T20:27:48.866Z,52.24
2018-08-09T20:32:52.950Z,52.51
2018-08-09T20:37:57.567Z,52.28
2018-08-09T20:43:01.356Z,52.63
2018-08-09T20:48:05.287Z,52.29
2018-08-09T20:53:09.023Z,52.20
2018-08-09T20:58:12.973Z,51.80
2018-08-09T21:03:17.322Z,51.91
2018-08-09T21:08:21.347Z,51.78
2018-08-09T21:13:26.626Z,51.76
2018-08-09T21:18:30.576Z,51.69
2018-08-09T21:23:34.234Z,51.61
2018-08-09T21:28:37.974Z,52.24
2018-08-09T21:33:42.491Z,52.27
2018-08-09T21:38:46.318Z,52.37
2018-08-09T21:43:50.045Z,51.79
2018-08-09T21:48:53.899Z,51.75
2018-08-09T21:53:58.050Z,51.93
2018-08-09T21:59:01.742Z,51.31
2018-08-09T22:04:05.438Z,51.57
2018-08-09T22:09:15.474Z,51.91
2018-08-09T22:14:24.579Z,51.41
2018-08-09T22:19:33.639Z,51.71
2018-08-09T22:24:38.006Z,50.84
2018-08-09T22:29:41.793Z,51.50
2018-08-09T22:34:45.592Z,51.12
2018-08-09T22:39:49.396Z,50.97
2018-08-09T22:44:53.186Z,50.94
2018-08-09T22:49:57.049Z,50.90
2018-08-09T22:55:00.945Z,50.76
2018-08-09T23:00:07.813Z,50.58
2018-08-09T23:05:11.592Z,49.60
2018-08-09T23:10:15.443Z,49.40
2018-08-09T23:15:19.122Z,45.61
2018-08-09T23:20:22.938Z,46.16
2018-08-09T23:25:26.582Z,44.00
2018-08-09T23:30:30.361Z,43.65
2018-08-09T23:35:34.200Z,43.50
2018-08-09T23:40:37.969Z,44.84
2018-08-09T23:45:41.874Z,45.21
2018-08-09T23:50:45.606Z,45.49
2018-08-09T23:55:49.321Z,45.60
